createdAt,value
2019-01-27T00:02:15.774Z,102.40
2019-01-27T00:04:45.078Z,115.53
2019-01-27T00:07:14.503Z,98.27
2019-01-27T00:09:43.907Z,102.33
2019-01-27T00:12:13.176Z,99.07
2019-01-27T00:14:42.622Z,109.53
2019-01-27T00:17:11.958Z,86.90
2019-01-27T00:19:41.230Z,225.13
2019-01-27T00:22:10.550Z,122.27
2019-01-27T00:24:39.833Z,123.27
2019-01-27T00:27:10.862Z,104.57
2019-01-27T00:29:40.218Z,102.10
2019-01-27T00:32:09.453Z,96.67
2019-01-27T00:34:38.674Z,96.60
2019-01-27T00:37:08.014Z,79.87
2019-01-27T00:39:37.258Z,128.40
2019-01-27T00:42:06.551Z,106.07
2019-01-27T00:44:35.797Z,88.63
2019-01-27T00:47:05.006Z,147.40
2019-01-27T00:49:34.293Z,104.57
2019-01-27T00:52:05.011Z,138.57
2019-01-27T00:54:34.297Z,105.43
2019-01-27T00:57:03.545Z,114.17
2019-01-27T00:59:32.821Z,106.03
2019-01-27T01:02:02.114Z,121.17
2019-01-27T01:04:31.357Z,95.37
2019-01-27T01:07:00.629Z,94.33
2019-01-27T01:09:29.978Z,92.20
2019-01-27T01:11:59.297Z,92.13
2019-01-27T01:14:28.544Z,84.37
2019-01-27T01:16:57.905Z,85.40
2019-01-27T01:19:27.176Z,84.33
2019-01-27T01:21:56.449Z,79.43
2019-01-27T01:24:25.691Z,94.03
2019-01-27T01:26:54.961Z,79.90
2019-01-27T01:29:24.209Z,67.77
2019-01-27T01:31:53.557Z,75.33
2019-01-27T01:34:23.060Z,84.60
2019-01-27T01:36:52.365Z,69.60
2019-01-27T01:39:21.616Z,72.10
2019-01-27T01:41:50.912Z,78.10
2019-01-27T01:44:20.200Z,85.70
2019-01-27T01:46:49.476Z,63.10
2019-01-27T01:49:18.764Z,74.13
2019-01-27T01:51:47.996Z,74.30
2019-01-27T01:54:17.278Z,75.67
2019-01-27T01:56:46.560Z,77.27
2019-01-27T01:59:15.864Z,79.37
2019-01-27T02:01:45.852Z,79.13
2019-01-27T02:04:15.108Z,84.67
2019-01-27T02:06:44.397Z,69.80
2019-01-27T02:09:37.212Z,81.23
2019-01-27T02:12:06.505Z,69.73
2019-01-27T02:14:35.844Z,78.40
2019-01-27T02:17:05.215Z,70.17
2019-01-27T02:19:34.511Z,77.27
2019-01-27T02:22:03.768Z,77.63
2019-01-27T02:24:33.067Z,77.33
2019-01-27T02:27:02.315Z,81.77
2019-01-27T02:29:31.571Z,79.60
2019-01-27T02:32:00.849Z,80.53
2019-01-27T02:34:30.139Z,76.73
2019-01-27T02:36:59.486Z,77.53
2019-01-27T02:39:28.891Z,71.37
2019-01-27T02:41:58.333Z,82.03
2019-01-27T02:44:27.619Z,84.07
2019-01-27T02:46:56.875Z,73.10
2019-01-27T02:49:26.151Z,96.27
2019-01-27T02:51:55.403Z,80.17
2019-01-27T02:54:24.675Z,79.37
2019-01-27T02:56:53.956Z,90.63
2019-01-27T02:59:23.195Z,91.53
2019-01-27T03:01:52.483Z,83.30
2019-01-27T03:04:21.759Z,80.50
2019-01-27T03:07:01.791Z,91.53
2019-01-27T03:09:37.679Z,90.73
2019-01-27T03:12:07.514Z,89.10
2019-01-27T03:14:36.838Z,96.93
2019-01-27T03:17:06.835Z,98.17
2019-01-27T03:19:36.239Z,98.33
2019-01-27T03:22:05.612Z,101.67
2019-01-27T03:24:34.906Z,91.73
2019-01-27T03:27:04.650Z,104.43
2019-01-27T03:29:33.930Z,113.10
2019-01-27T03:32:03.254Z,94.20
2019-01-27T03:34:32.499Z,97.00
2019-01-27T03:37:01.791Z,103.23
2019-01-27T03:39:31.107Z,102.70
2019-01-27T03:42:00.412Z,111.13
2019-01-27T03:44:29.742Z,106.90
2019-01-27T03:46:58.964Z,94.27
2019-01-27T03:49:28.202Z,102.40
2019-01-27T03:51:57.762Z,107.23
2019-01-27T03:54:27.018Z,104.90
2019-01-27T03:56:56.258Z,95.70
2019-01-27T03:59:25.612Z,94.90
2019-01-27T04:01:54.851Z,96.00
2019-01-27T04:04:24.146Z,91.97
2019-01-27T04:06:53.386Z,104.77
2019-01-27T04:09:22.691Z,102.43
2019-01-27T04:11:52.051Z,115.27
2019-01-27T04:14:21.370Z,103.63
2019-01-27T04:16:50.775Z,101.40
2019-01-27T04:19:20.046Z,106.70
2019-01-27T04:21:49.442Z,95.77
2019-01-27T04:24:18.782Z,101.00
2019-01-27T04:26:48.053Z,99.17
2019-01-27T04:29:17.335Z,91.83
2019-01-27T04:31:46.631Z,103.50
2019-01-27T04:34:15.998Z,93.33
2019-01-27T04:36:45.182Z,87.73
2019-01-27T04:39:14.401Z,87.17
2019-01-27T04:41:43.774Z,93.90
2019-01-27T04:44:13.033Z,94.30
2019-01-27T04:46:42.330Z,109.67
2019-01-27T04:49:11.635Z,102.23
2019-01-27T04:51:40.877Z,88.03
2019-01-27T04:54:10.243Z,102.97
2019-01-27T04:56:39.578Z,94.23
2019-01-27T04:59:08.829Z,105.23
2019-01-27T05:01:38.113Z,100.93
2019-01-27T05:04:19.306Z,95.73
2019-01-27T05:06:48.609Z,102.57
2019-01-27T05:09:17.894Z,92.37
2019-01-27T05:11:47.252Z,95.43
2019-01-27T05:14:16.521Z,91.33
2019-01-27T05:16:45.817Z,107.53
2019-01-27T05:19:15.104Z,97.63
2019-01-27T05:21:44.334Z,98.37
2019-01-27T05:24:13.677Z,114.40
2019-01-27T05:26:42.962Z,93.33
2019-01-27T05:29:12.300Z,94.90
2019-01-27T05:31:41.601Z,94.13
2019-01-27T05:34:10.977Z,99.77
2019-01-27T05:36:40.369Z,102.77
2019-01-27T05:39:09.838Z,114.57
2019-01-27T05:41:39.085Z,107.47
2019-01-27T05:44:08.380Z,106.40
2019-01-27T05:46:37.685Z,102.53
2019-01-27T05:49:06.951Z,99.53
2019-01-27T05:51:36.248Z,107.27
2019-01-27T05:54:05.780Z,101.27
2019-01-27T05:56:35.039Z,128.30
2019-01-27T05:59:04.432Z,128.53
2019-01-27T06:01:33.724Z,127.50
2019-01-27T06:04:03.118Z,128.73
2019-01-27T06:06:32.470Z,125.70
2019-01-27T06:09:01.783Z,134.90
2019-01-27T06:11:31.132Z,124.37
2019-01-27T06:14:00.456Z,121.70
2019-01-27T06:16:29.757Z,138.20
2019-01-27T06:18:59.058Z,152.27
2019-01-27T06:21:28.312Z,150.80
2019-01-27T06:23:57.680Z,139.17
2019-01-27T06:26:26.968Z,147.63
2019-01-27T06:28:56.272Z,140.30
2019-01-27T06:31:25.606Z,139.60
2019-01-27T06:33:59.507Z,125.83
2019-01-27T06:36:28.879Z,136.23
2019-01-27T06:38:58.203Z,135.87
2019-01-27T06:41:27.507Z,131.00
2019-01-27T06:43:57.653Z,142.60
2019-01-27T06:46:27.024Z,130.43
2019-01-27T06:48:56.286Z,133.60
2019-01-27T06:51:25.543Z,160.03
2019-01-27T06:53:55.232Z,141.53
2019-01-27T06:56:24.531Z,148.90
2019-01-27T06:59:15.890Z,136.97
2019-01-27T07:02:02.881Z,133.43
2019-01-27T07:04:54.038Z,143.03
2019-01-27T07:07:41.031Z,138.33
2019-01-27T07:10:28.103Z,143.43
2019-01-27T07:13:15.383Z,157.93
2019-01-27T07:16:15.907Z,155.10
2019-01-27T07:19:04.279Z,138.00
2019-01-27T07:21:53.311Z,133.60
2019-01-27T07:24:34.318Z,152.47
2019-01-27T07:27:28.302Z,153.43
2019-01-27T07:30:22.395Z,150.70
2019-01-27T07:33:09.286Z,147.93
2019-01-27T07:35:57.575Z,167.27
2019-01-27T07:38:38.879Z,177.03
2019-01-27T07:41:29.943Z,163.27
2019-01-27T07:44:21.123Z,179.60
2019-01-27T07:46:58.975Z,160.10
2019-01-27T07:49:46.055Z,169.33
2019-01-27T07:52:46.504Z,166.67
2019-01-27T07:55:40.798Z,151.87
2019-01-27T07:58:44.198Z,165.77
2019-01-27T08:01:19.586Z,206.67
2019-01-27T08:04:13.566Z,169.57
2019-01-27T08:06:50.414Z,173.63
2019-01-27T08:09:34.758Z,157.60
2019-01-27T08:12:23.118Z,176.40
2019-01-27T08:15:26.590Z,183.50
2019-01-27T08:18:17.735Z,171.27
2019-01-27T08:21:04.438Z,179.27
2019-01-27T08:23:41.542Z,174.27
2019-01-27T08:26:28.322Z,178.40
2019-01-27T08:29:28.830Z,171.17
2019-01-27T08:32:11.393Z,174.13
2019-01-27T08:35:08.678Z,177.87
2019-01-27T08:37:59.534Z,175.17
2019-01-27T08:40:38.814Z,190.43
2019-01-27T08:45:47.425Z,177.00
2019-01-27T08:48:17.074Z,195.27
2019-01-27T08:50:46.370Z,167.90
2019-01-27T08:53:15.664Z,177.83
2019-01-27T08:55:44.914Z,170.43
2019-01-27T08:58:14.130Z,172.80
2019-01-27T09:00:48.589Z,167.57
2019-01-27T09:03:38.449Z,168.50
2019-01-27T09:06:29.641Z,157.83
2019-01-27T09:09:24.823Z,166.00
2019-01-27T09:12:16.253Z,170.20
2019-01-27T09:15:04.586Z,167.40
2019-01-27T09:17:40.497Z,180.07
2019-01-27T09:20:28.443Z,277.97
2019-01-27T09:23:05.133Z,176.70
2019-01-27T09:25:59.337Z,173.03
2019-01-27T09:28:44.393Z,156.93
2019-01-27T09:31:32.673Z,185.60
2019-01-27T09:34:20.985Z,156.43
2019-01-27T09:37:15.405Z,154.57
2019-01-27T09:40:02.670Z,152.07
2019-01-27T09:42:50.301Z,138.60
2019-01-27T09:45:37.265Z,148.17
2019-01-27T09:48:37.844Z,141.37
2019-01-27T09:51:24.769Z,170.83
2019-01-27T09:54:15.853Z,134.23
2019-01-27T09:57:02.925Z,142.97
2019-01-27T09:59:54.296Z,159.13
2019-01-27T10:02:39.569Z,246.17
2019-01-27T10:05:22.805Z,163.20
2019-01-27T10:08:20.276Z,158.60
2019-01-27T10:11:00.644Z,128.20
2019-01-27T10:13:58.216Z,135.43
2019-01-27T10:16:46.553Z,144.70
2019-01-27T10:19:37.633Z,161.83
2019-01-27T10:22:28.893Z,155.20
2019-01-27T10:25:22.937Z,144.33
2019-01-27T10:28:00.897Z,134.30
2019-01-27T10:30:47.817Z,127.07
2019-01-27T10:33:31.137Z,143.13
2019-01-27T10:36:25.282Z,122.97
2019-01-27T10:39:02.589Z,138.07
2019-01-27T10:41:50.865Z,140.27
2019-01-27T10:44:28.513Z,155.50
2019-01-27T10:50:04.723Z,145.13
2019-01-27T10:52:45.928Z,229.27
2019-01-27T10:55:33.029Z,297.23
2019-01-27T10:58:16.773Z,294.77
2019-01-27T11:01:01.208Z,162.13
2019-01-27T11:03:36.361Z,289.43
2019-01-27T11:06:20.224Z,174.97
2019-01-27T11:09:06.824Z,261.63
2019-01-27T11:11:51.496Z,156.73
2019-01-27T11:14:42.720Z,162.70
2019-01-27T11:17:37.204Z,143.73
2019-01-27T11:20:25.544Z,155.73
2019-01-27T11:23:12.324Z,222.50
2019-01-27T11:25:48.948Z,147.90
2019-01-27T11:28:37.644Z,172.10
2019-01-27T11:31:28.924Z,145.07
2019-01-27T11:34:32.392Z,155.60
2019-01-27T11:37:23.588Z,146.37
2019-01-27T11:40:14.693Z,145.93
2019-01-27T11:42:57.912Z,147.47
2019-01-27T11:45:39.132Z,142.90
2019-01-27T11:48:30.074Z,155.50
2019-01-27T11:51:18.418Z,133.63
2019-01-27T11:53:47.747Z,135.83
2019-01-27T11:56:17.122Z,122.50
2019-01-27T11:58:46.390Z,123.27
2019-01-27T12:01:15.671Z,142.87
2019-01-27T12:03:44.944Z,128.00
2019-01-27T12:06:14.242Z,128.83
2019-01-27T12:08:43.622Z,125.90
2019-01-27T12:11:12.982Z,126.30
2019-01-27T12:13:42.322Z,122.13
2019-01-27T12:16:13.532Z,124.07
2019-01-27T12:18:42.850Z,115.37
2019-01-27T12:21:12.182Z,117.07
2019-01-27T12:23:41.474Z,133.57
2019-01-27T12:26:10.778Z,134.33
2019-01-27T12:28:40.102Z,130.77
2019-01-27T12:31:09.478Z,144.60
2019-01-27T12:33:38.778Z,122.53
2019-01-27T12:36:08.038Z,145.17
2019-01-27T12:38:37.434Z,133.13
2019-01-27T12:41:06.818Z,141.13
2019-01-27T12:43:36.067Z,154.33
2019-01-27T12:46:05.384Z,167.87
2019-01-27T12:48:34.757Z,154.50
2019-01-27T12:51:04.210Z,143.93
2019-01-27T12:53:33.513Z,211.33
2019-01-27T12:56:02.873Z,146.03
2019-01-27T12:58:32.153Z,138.97
2019-01-27T13:01:05.165Z,131.77
2019-01-27T13:03:34.501Z,137.63
2019-01-27T13:06:03.785Z,188.90
2019-01-27T13:08:33.010Z,146.43
2019-01-27T13:11:05.615Z,150.60
2019-01-27T13:13:33.969Z,156.93
2019-01-27T13:16:03.449Z,159.30
2019-01-27T13:18:32.762Z,337.73
2019-01-27T13:21:02.017Z,233.57
2019-01-27T13:23:31.333Z,159.00
2019-01-27T13:26:00.619Z,154.77
2019-01-27T13:28:30.001Z,178.13
2019-01-27T13:30:59.181Z,182.03
2019-01-27T13:33:28.541Z,176.40
2019-01-27T13:35:57.801Z,147.37
2019-01-27T13:38:27.037Z,229.73
2019-01-27T13:40:56.393Z,197.10
2019-01-27T13:43:25.686Z,165.07
2019-01-27T13:45:54.964Z,178.90
2019-01-27T13:48:24.352Z,266.90
2019-01-27T13:50:53.628Z,172.00
2019-01-27T13:53:22.970Z,223.60
2019-01-27T13:55:52.388Z,296.17
2019-01-27T13:58:21.680Z,308.77
2019-01-27T14:00:51.009Z,182.43
2019-01-27T14:03:20.328Z,246.90
2019-01-27T14:05:49.580Z,167.73
2019-01-27T14:08:18.886Z,159.93
2019-01-27T14:10:48.136Z,185.17
2019-01-27T14:13:17.529Z,240.67
2019-01-27T14:15:46.924Z,204.50
2019-01-27T14:18:16.200Z,185.17
2019-01-27T14:20:45.568Z,230.03
2019-01-27T14:23:14.844Z,159.53
2019-01-27T14:25:44.191Z,138.37
2019-01-27T14:28:13.937Z,135.90
2019-01-27T14:30:44.207Z,131.93
2019-01-27T14:33:13.468Z,128.70
2019-01-27T14:35:42.744Z,143.00
2019-01-27T14:38:12.003Z,148.57
2019-01-27T14:40:41.279Z,157.80
2019-01-27T14:43:10.583Z,131.93
2019-01-27T14:45:39.955Z,125.00
2019-01-27T14:48:09.278Z,137.17
2019-01-27T14:50:41.639Z,138.70
2019-01-27T14:53:11.135Z,144.07
2019-01-27T14:55:40.612Z,144.97
2019-01-27T14:58:09.907Z,122.00
2019-01-27T15:00:40.968Z,133.37
2019-01-27T15:03:11.236Z,122.20
2019-01-27T15:05:40.532Z,119.63
2019-01-27T15:08:10.139Z,110.00
2019-01-27T15:10:40.586Z,119.67
2019-01-27T15:13:09.959Z,130.43
2019-01-27T15:15:39.271Z,127.80
2019-01-27T15:18:08.651Z,117.33
2019-01-27T15:20:44.179Z,115.40
2019-01-27T15:23:13.447Z,123.10
2019-01-27T15:25:42.722Z,121.07
2019-01-27T15:28:12.067Z,136.63
2019-01-27T15:30:41.430Z,161.93
2019-01-27T15:33:10.726Z,105.83
2019-01-27T15:35:40.026Z,108.60
2019-01-27T15:38:09.312Z,119.43
2019-01-27T15:40:38.638Z,118.70
2019-01-27T15:43:08.062Z,147.47
2019-01-27T15:45:37.230Z,120.73
2019-01-27T15:48:06.961Z,121.27
2019-01-27T15:50:36.470Z,138.63
2019-01-27T15:53:06.250Z,144.83
2019-01-27T15:55:36.178Z,125.57
2019-01-27T15:58:05.802Z,118.63
2019-01-27T16:00:35.258Z,126.43
2019-01-27T16:03:04.634Z,124.67
2019-01-27T16:05:34.011Z,108.30
2019-01-27T16:08:03.256Z,119.67
2019-01-27T16:10:32.590Z,119.33
2019-01-27T16:13:01.878Z,120.47
2019-01-27T16:15:32.658Z,153.37
2019-01-27T16:18:01.913Z,133.10
2019-01-27T16:20:31.274Z,147.80
2019-01-27T16:23:11.822Z,142.90
2019-01-27T16:25:41.517Z,127.17
2019-01-27T16:28:10.981Z,136.43
2019-01-27T16:30:58.282Z,121.70
2019-01-27T16:33:36.869Z,129.30
2019-01-27T16:36:06.297Z,125.27
2019-01-27T16:38:35.490Z,121.73
2019-01-27T16:41:04.862Z,135.83
2019-01-27T16:43:34.117Z,382.83
2019-01-27T16:46:03.405Z,171.83
2019-01-27T16:48:32.837Z,149.40
2019-01-27T16:51:02.229Z,138.03
2019-01-27T16:53:31.494Z,203.53
2019-01-27T16:56:00.749Z,124.20
2019-01-27T16:58:29.965Z,211.80
2019-01-27T17:00:59.222Z,115.23
2019-01-27T17:03:29.281Z,121.77
2019-01-27T17:05:58.681Z,117.40
2019-01-27T17:08:27.967Z,111.73
2019-01-27T17:10:57.224Z,124.23
2019-01-27T17:13:26.514Z,121.07
2019-01-27T17:15:55.761Z,336.40
2019-01-27T17:18:25.116Z,130.43
2019-01-27T17:20:54.402Z,115.63
2019-01-27T17:23:23.703Z,117.77
2019-01-27T17:25:53.748Z,148.73
2019-01-27T17:28:23.110Z,131.37
2019-01-27T17:30:52.745Z,148.43
2019-01-27T17:33:22.080Z,116.67
2019-01-27T17:35:51.501Z,127.33
2019-01-27T17:38:20.817Z,121.27
2019-01-27T17:40:50.174Z,126.77
2019-01-27T17:43:19.421Z,107.57
2019-01-27T17:45:48.833Z,125.50
2019-01-27T17:48:18.173Z,113.47
2019-01-27T17:50:47.789Z,126.37
2019-01-27T17:53:17.099Z,103.10
2019-01-27T17:55:46.412Z,129.97
2019-01-27T17:58:58.109Z,148.03
2019-01-27T18:01:52.232Z,116.27
2019-01-27T18:04:38.685Z,109.87
2019-01-27T18:07:13.580Z,113.63
2019-01-27T18:10:00.392Z,120.90
2019-01-27T18:12:47.142Z,105.20
2019-01-27T18:15:16.440Z,136.67
2019-01-27T18:17:45.705Z,136.83
2019-01-27T18:20:15.482Z,133.37
2019-01-27T18:22:44.728Z,147.73
2019-01-27T18:25:14.418Z,114.67
2019-01-27T18:27:43.735Z,143.37
2019-01-27T18:30:16.757Z,151.50
2019-01-27T18:32:46.065Z,118.33
2019-01-27T18:35:15.431Z,117.77
2019-01-27T18:37:44.838Z,120.93
2019-01-27T18:40:14.582Z,160.83
2019-01-27T18:42:44.609Z,126.23
2019-01-27T18:45:16.251Z,139.93
2019-01-27T18:47:45.537Z,144.50
2019-01-27T18:50:16.986Z,132.73
2019-01-27T18:52:46.325Z,115.67
2019-01-27T18:55:49.974Z,119.67
2019-01-27T18:58:35.990Z,97.13
2019-01-27T19:01:32.070Z,103.37
2019-01-27T19:04:19.246Z,88.67
2019-01-27T19:07:07.537Z,163.60
2019-01-27T19:09:46.501Z,143.67
2019-01-27T19:12:29.289Z,115.07
2019-01-27T19:15:23.481Z,211.23
2019-01-27T19:18:18.113Z,128.60
2019-01-27T19:20:56.789Z,101.53
2019-01-27T19:23:34.081Z,131.60
2019-01-27T19:26:26.120Z,138.57
2019-01-27T19:29:05.581Z,138.60
2019-01-27T19:31:39.298Z,170.30
2019-01-27T19:34:19.376Z,207.23
2019-01-27T19:37:06.048Z,225.63
2019-01-27T19:40:00.316Z,145.00
2019-01-27T19:42:45.798Z,132.03
2019-01-27T19:45:37.152Z,225.27
2019-01-27T19:48:31.405Z,132.17
2019-01-27T19:51:19.733Z,126.27
2019-01-27T19:53:57.613Z,235.53
2019-01-27T19:57:04.304Z,223.10
2019-01-27T19:59:58.320Z,376.63
2019-01-27T20:02:37.798Z,284.97
2019-01-27T20:05:25.832Z,181.60
2019-01-27T20:08:05.488Z,115.10
2019-01-27T20:10:49.293Z,125.00
2019-01-27T20:13:40.856Z,98.37
2019-01-27T20:16:27.884Z,103.67
2019-01-27T20:19:25.000Z,176.00
2019-01-27T20:22:05.336Z,94.30
2019-01-27T20:25:02.910Z,88.77
2019-01-27T20:27:48.661Z,95.73
2019-01-27T20:30:43.279Z,107.43
2019-01-27T20:33:30.469Z,94.83
2019-01-27T20:36:11.323Z,71.33
2019-01-27T20:38:59.675Z,94.50
2019-01-27T20:42:00.066Z,123.23
2019-01-27T20:44:48.364Z,97.90
2019-01-27T20:47:27.349Z,112.97
2019-01-27T20:50:24.513Z,96.10
2019-01-27T20:53:12.832Z,87.17
2019-01-27T20:55:53.885Z,112.57
2019-01-27T20:58:45.117Z,89.17
2019-01-27T21:01:30.945Z,362.10
2019-01-27T21:04:13.269Z,136.53
2019-01-27T21:06:50.140Z,171.70
2019-01-27T21:09:39.112Z,79.97
2019-01-27T21:12:36.489Z,83.33
2019-01-27T21:15:19.640Z,73.57
2019-01-27T21:18:16.593Z,96.77
2019-01-27T21:20:45.851Z,92.63
2019-01-27T21:23:15.133Z,80.27
2019-01-27T21:25:44.309Z,79.83
2019-01-27T21:28:13.609Z,106.47
2019-01-27T21:30:43.012Z,84.47
2019-01-27T21:33:12.288Z,131.00
2019-01-27T21:35:41.580Z,194.80
2019-01-27T21:38:10.812Z,115.67
2019-01-27T21:40:40.020Z,98.30
2019-01-27T21:43:09.336Z,91.37
2019-01-27T21:45:38.620Z,105.63
2019-01-27T21:48:07.936Z,103.50
2019-01-27T21:50:37.232Z,92.17
2019-01-27T21:53:06.508Z,92.77
2019-01-27T21:55:35.779Z,100.73
2019-01-27T21:58:05.064Z,109.43
2019-01-27T22:00:34.312Z,131.93
2019-01-27T22:03:03.674Z,116.87
2019-01-27T22:05:32.944Z,90.47
2019-01-27T22:08:02.327Z,181.27
2019-01-27T22:10:31.590Z,255.87
2019-01-27T22:13:02.653Z,82.77
2019-01-27T22:15:31.768Z,75.13
2019-01-27T22:18:01.132Z,84.53
2019-01-27T22:20:30.392Z,110.73
2019-01-27T22:22:59.683Z,77.27
2019-01-27T22:25:28.932Z,71.30
2019-01-27T22:27:58.272Z,68.27
2019-01-27T22:30:27.559Z,134.83
2019-01-27T22:32:56.843Z,89.00
2019-01-27T22:35:26.103Z,69.30
2019-01-27T22:37:55.392Z,89.37
2019-01-27T22:40:24.747Z,69.97
2019-01-27T22:42:54.084Z,65.63
2019-01-27T22:45:23.367Z,77.93
2019-01-27T22:47:52.620Z,69.70
2019-01-27T22:50:21.951Z,67.57
2019-01-27T22:52:51.220Z,80.67
2019-01-27T22:55:20.527Z,77.67
2019-01-27T22:57:49.831Z,73.47
2019-01-27T23:00:28.522Z,65.87
2019-01-27T23:02:57.855Z,60.33
2019-01-27T23:05:27.207Z,66.97
2019-01-27T23:07:56.559Z,59.40
2019-01-27T23:10:25.880Z,128.43
2019-01-27T23:12:55.180Z,69.33
2019-01-27T23:15:24.501Z,66.13
2019-01-27T23:17:53.835Z,75.90
2019-01-27T23:20:23.107Z,55.53
2019-01-27T23:22:52.403Z,78.77
2019-01-27T23:25:21.799Z,65.83
2019-01-27T23:27:51.167Z,71.43
2019-01-27T23:30:20.487Z,61.67
2019-01-27T23:32:49.815Z,61.87
2019-01-27T23:35:19.071Z,54.80
2019-01-27T23:37:48.406Z,53.00
2019-01-27T23:40:17.615Z,52.83
2019-01-27T23:42:46.919Z,56.53
2019-01-27T23:45:16.227Z,50.27
2019-01-27T23:47:45.474Z,55.37
2019-01-27T23:50:14.815Z,56.63
2019-01-27T23:52:44.158Z,54.43
2019-01-27T23:55:13.538Z,172.90
2019-01-27T23:57:42.870Z,140.13
